Time;durP1;ratioP1;P1;durP2;ratioP2;P2;SDS_P1;SDS_P2;PMS_P1;PMS_P2;Temp;Humidity;BMP_temperature;BMP_pressure;BME280_temperature;BME280_humidity;BME280_pressure;Samples;Min_cycle;Max_cycle;Signal;HPM_P1;HPM_P2
2023/12/21 00:01:44;;;;;;;30.15;7.72;;;9.60;99.90;;;;;;5049455;28;20033;-69
2023/12/21 00:04:10;;;;;;;24.23;7.30;;;9.70;99.90;;;;;;5049057;28;20075;-70
2023/12/21 00:06:35;;;;;;;23.80;6.90;;;9.60;99.90;;;;;;5049339;28;20024;-70
2023/12/21 00:09:01;;;;;;;27.23;6.82;;;9.60;99.90;;;;;;5049116;28;20029;-70
2023/12/21 00:11:27;;;;;;;20.67;6.45;;;9.70;99.90;;;;;;5049364;28;20103;-69
2023/12/21 00:13:52;;;;;;;29.13;7.30;;;9.70;99.90;;;;;;5047327;28;20103;-69
2023/12/21 00:16:18;;;;;;;25.88;6.82;;;9.70;99.90;;;;;;5049390;28;20032;-69
2023/12/21 00:18:43;;;;;;;30.63;6.47;;;9.60;99.90;;;;;;5048369;28;20522;-70
2023/12/21 00:21:09;;;;;;;25.63;5.95;;;9.70;99.90;;;;;;5046671;28;20111;-69
2023/12/21 00:23:35;;;;;;;21.80;6.45;;;9.60;99.90;;;;;;5048769;28;20033;-70
2023/12/21 00:26:01;;;;;;;28.13;8.07;;;9.70;99.90;;;;;;5048667;28;20021;-69
2023/12/21 00:28:27;;;;;;;25.30;6.00;;;9.60;99.90;;;;;;5048513;28;20021;-70
2023/12/21 00:30:52;;;;;;;28.13;6.60;;;9.70;99.90;;;;;;5046038;28;20112;-70
2023/12/21 00:33:18;;;;;;;25.70;6.35;;;9.60;99.90;;;;;;5044432;28;20044;-69
2023/12/21 00:35:44;;;;;;;22.90;6.82;;;9.70;99.90;;;;;;5049109;28;20017;-69
2023/12/21 00:38:09;;;;;;;24.88;6.18;;;9.60;99.90;;;;;;5048304;28;20103;-69
2023/12/21 00:40:35;;;;;;;25.02;7.15;;;9.70;99.90;;;;;;5048994;28;20469;-69
2023/12/21 00:43:01;;;;;;;23.52;7.03;;;9.60;99.90;;;;;;5046800;28;20028;-70
2023/12/21 00:45:26;;;;;;;25.67;7.03;;;9.70;99.90;;;;;;5048324;28;20532;-69
2023/12/21 00:47:52;;;;;;;26.80;7.35;;;9.60;99.90;;;;;;5048095;28;20049;-69
2023/12/21 00:50:18;;;;;;;21.63;6.90;;;9.60;99.90;;;;;;5047252;28;20121;-69
2023/12/21 00:52:43;;;;;;;26.15;7.18;;;9.70;99.90;;;;;;5047855;28;20035;-69
2023/12/21 00:55:09;;;;;;;25.02;7.18;;;9.70;99.90;;;;;;5048135;28;20038;-70
2023/12/21 00:57:35;;;;;;;20.60;7.20;;;9.70;99.90;;;;;;5048443;28;20037;-69
2023/12/21 01:00:01;;;;;;;17.50;7.43;;;9.70;99.90;;;;;;5046981;28;20048;-69
2023/12/21 01:02:26;;;;;;;25.00;8.80;;;9.70;99.90;;;;;;5048200;28;20029;-69
2023/12/21 01:04:52;;;;;;;28.38;8.65;;;9.70;99.90;;;;;;5048080;28;20021;-70
2023/12/21 01:07:18;;;;;;;29.55;8.65;;;9.70;99.90;;;;;;5047726;28;20032;-70
2023/12/21 01:09:43;;;;;;;24.70;7.85;;;9.70;99.90;;;;;;5047746;28;20029;-69
2023/12/21 01:12:09;;;;;;;25.58;8.38;;;9.70;99.90;;;;;;5048394;28;20021;-70
2023/12/21 01:14:35;;;;;;;26.73;9.13;;;9.70;99.90;;;;;;5047704;28;20474;-70
2023/12/21 01:17:01;;;;;;;31.70;9.15;;;9.70;99.90;;;;;;5047820;28;20033;-70
2023/12/21 01:19:27;;;;;;;25.83;8.40;;;9.70;99.90;;;;;;5047477;28;20025;-69
2023/12/21 01:21:53;;;;;;;25.58;8.45;;;9.70;99.90;;;;;;5047844;28;20382;-70
2023/12/21 01:24:18;;;;;;;26.20;8.38;;;9.70;99.90;;;;;;5047571;28;20032;-69
2023/12/21 01:26:44;;;;;;;35.35;9.10;;;9.70;99.90;;;;;;5047794;28;20093;-70
2023/12/21 01:29:10;;;;;;;23.92;8.70;;;9.70;99.90;;;;;;5047665;28;20083;-70
2023/12/21 01:31:36;;;;;;;27.65;8.10;;;9.70;99.90;;;;;;5046435;28;20386;-70
2023/12/21 01:34:01;;;;;;;26.20;8.07;;;9.70;99.90;;;;;;5047553;28;20028;-69
2023/12/21 01:36:28;;;;;;;24.77;8.23;;;9.70;99.90;;;;;;5047808;28;20441;-69
2023/12/21 01:38:54;;;;;;;22.77;7.43;;;9.70;99.90;;;;;;5047343;28;20032;-70
2023/12/21 01:41:19;;;;;;;21.95;7.90;;;9.70;99.90;;;;;;5046187;28;20033;-69
2023/12/21 01:43:45;;;;;;;23.95;8.02;;;9.70;99.90;;;;;;5045852;28;20029;-70
2023/12/21 01:46:11;;;;;;;22.23;7.47;;;9.70;99.90;;;;;;5047524;28;20453;-70
2023/12/21 01:48:37;;;;;;;20.35;6.75;;;9.70;99.90;;;;;;5047157;28;20032;-69
2023/12/21 01:51:04;;;;;;;20.70;6.72;;;9.70;99.90;;;;;;5047485;28;20025;-70
2023/12/21 01:53:31;;;;;;;26.50;6.88;;;9.70;99.90;;;;;;5046863;28;20033;-70
2023/12/21 01:55:58;;;;;;;25.10;6.60;;;9.70;99.90;;;;;;5047297;28;20017;-70
2023/12/21 01:58:24;;;;;;;21.75;6.85;;;9.70;99.90;;;;;;5047188;28;20028;-70
2023/12/21 02:00:50;;;;;;;17.58;6.00;;;9.80;99.90;;;;;;5047263;28;20107;-70
2023/12/21 02:03:16;;;;;;;25.67;7.53;;;9.70;99.90;;;;;;5046881;28;20028;-70
2023/12/21 02:05:42;;;;;;;23.35;5.68;;;9.80;99.90;;;;;;5046530;28;20016;-69
2023/12/21 02:08:08;;;;;;;23.45;5.53;;;9.80;99.90;;;;;;5046578;28;20394;-70
2023/12/21 02:10:35;;;;;;;27.98;6.00;;;9.80;99.90;;;;;;5047232;28;20078;-70
2023/12/21 02:13:00;;;;;;;22.90;5.90;;;9.80;99.90;;;;;;5045019;28;20033;-70
2023/12/21 02:15:26;;;;;;;24.73;5.35;;;9.80;99.90;;;;;;5047020;28;20036;-70
2023/12/21 02:17:54;;;;;;;24.67;5.43;;;9.80;99.90;;;;;;5046683;28;20063;-70
2023/12/21 02:20:20;;;;;;;26.80;5.32;;;9.80;99.90;;;;;;5046869;28;20536;-70
2023/12/21 02:22:48;;;;;;;22.80;5.70;;;9.80;99.90;;;;;;5046567;28;20079;-70
2023/12/21 02:25:14;;;;;;;26.33;5.53;;;9.80;99.90;;;;;;5045517;28;20024;-70
2023/12/21 02:27:40;;;;;;;23.73;5.25;;;9.80;99.90;;;;;;5046316;28;20147;-69
2023/12/21 02:30:06;;;;;;;25.50;5.53;;;9.80;99.90;;;;;;5046497;28;20136;-70
2023/12/21 02:32:32;;;;;;;20.00;5.18;;;9.80;99.90;;;;;;5046859;28;20057;-70
2023/12/21 02:34:58;;;;;;;25.35;4.95;;;9.80;99.90;;;;;;5045024;28;20059;-69
2023/12/21 02:37:23;;;;;;;21.70;5.20;;;9.80;99.90;;;;;;5046986;28;20033;-70
2023/12/21 02:39:49;;;;;;;24.92;5.57;;;9.80;99.90;;;;;;5046346;28;20033;-70
2023/12/21 02:42:14;;;;;;;24.88;5.65;;;9.80;99.90;;;;;;5046783;28;20402;-70
2023/12/21 02:44:40;;;;;;;22.92;6.03;;;9.80;99.90;;;;;;5046104;28;20135;-69
2023/12/21 02:47:06;;;;;;;21.65;5.88;;;9.80;99.90;;;;;;5046566;28;20025;-70
2023/12/21 02:49:31;;;;;;;21.95;5.85;;;9.80;99.90;;;;;;5046305;28;20108;-70
2023/12/21 02:51:57;;;;;;;27.98;6.95;;;9.80;99.90;;;;;;5046376;28;20021;-70
2023/12/21 02:54:23;;;;;;;27.15;6.78;;;9.80;99.90;;;;;;5046185;28;20482;-70
2023/12/21 02:56:48;;;;;;;27.02;6.55;;;9.80;99.90;;;;;;5046467;28;20402;-70
2023/12/21 02:59:14;;;;;;;29.10;6.40;;;9.80;99.90;;;;;;5046394;28;20028;-70
2023/12/21 03:01:42;;;;;;;25.73;6.55;;;9.80;99.90;;;;;;5046374;28;20025;-70
2023/12/21 03:04:13;;;;;;;28.35;6.68;;;9.80;99.90;;;;;;5045944;28;20155;-70
2023/12/21 03:06:39;;;;;;;23.13;6.13;;;9.80;99.90;;;;;;5046223;28;20032;-70
2023/12/21 03:09:05;;;;;;;33.28;6.40;;;9.80;99.90;;;;;;5046396;28;20029;-70
2023/12/21 03:11:30;;;;;;;23.55;7.13;;;9.80;99.90;;;;;;5045188;28;20017;-70
2023/12/21 03:13:56;;;;;;;20.23;5.75;;;9.80;99.90;;;;;;5045836;28;20048;-70
2023/12/21 03:16:22;;;;;;;28.17;6.57;;;9.80;99.90;;;;;;5048507;28;20406;-70
2023/12/21 03:18:47;;;;;;;27.85;6.65;;;9.80;99.90;;;;;;5049951;28;20143;-70
2023/12/21 03:21:16;;;;;;;27.05;6.38;;;9.80;99.90;;;;;;5050162;28;20031;-70
2023/12/21 03:23:42;;;;;;;25.92;5.60;;;9.80;99.90;;;;;;5049942;28;20021;-70
2023/12/21 03:26:08;;;;;;;24.23;6.57;;;9.80;99.90;;;;;;5049997;28;20388;-71
2023/12/21 03:28:34;;;;;;;27.35;7.00;;;9.80;99.90;;;;;;5049898;28;20033;-70
2023/12/21 03:31:01;;;;;;;24.80;6.07;;;9.80;99.90;;;;;;5049999;28;20025;-69
2023/12/21 03:33:27;;;;;;;21.13;5.53;;;9.80;99.90;;;;;;5049767;28;20095;-70
2023/12/21 03:35:52;;;;;;;32.42;6.65;;;9.80;99.90;;;;;;5049743;28;20048;-70
2023/12/21 03:38:18;;;;;;;31.63;5.97;;;9.80;99.90;;;;;;5049895;28;20029;-70
2023/12/21 03:40:44;;;;;;;32.95;6.85;;;9.80;99.90;;;;;;5049798;28;20028;-70
2023/12/21 03:43:10;;;;;;;23.65;6.30;;;9.80;99.90;;;;;;5049469;28;20040;-70
2023/12/21 03:45:39;;;;;;;25.50;5.88;;;9.80;99.90;;;;;;5049496;28;20025;-70
2023/12/21 03:48:09;;;;;;;28.02;5.90;;;9.80;99.90;;;;;;5049554;28;20037;-70
2023/12/21 03:50:34;;;;;;;23.92;5.93;;;9.80;99.90;;;;;;5049574;28;20023;-70
2023/12/21 03:53:00;;;;;;;28.02;6.45;;;9.80;99.90;;;;;;5049354;28;20025;-70
2023/12/21 03:55:26;;;;;;;28.17;6.20;;;9.80;99.90;;;;;;5049517;28;20063;-71
2023/12/21 03:57:52;;;;;;;23.17;5.78;;;9.80;99.90;;;;;;5049284;28;20024;-70
2023/12/21 04:00:20;;;;;;;33.03;6.63;;;9.80;99.90;;;;;;5049283;28;20024;-71
2023/12/21 04:02:46;;;;;;;30.70;6.55;;;9.80;99.90;;;;;;5049178;28;20025;-71
2023/12/21 04:05:12;;;;;;;31.08;6.88;;;9.80;99.90;;;;;;5049177;28;20524;-71
2023/12/21 04:07:38;;;;;;;19.08;5.55;;;9.80;99.90;;;;;;5049045;28;20025;-71
2023/12/21 04:10:04;;;;;;;36.97;6.05;;;9.80;99.90;;;;;;5047639;28;20025;-71
2023/12/21 04:12:29;;;;;;;23.70;6.07;;;9.90;99.90;;;;;;5049315;28;20025;-72
2023/12/21 04:14:55;;;;;;;35.70;6.07;;;9.80;99.90;;;;;;5048534;28;20045;-71
2023/12/21 04:17:21;;;;;;;28.40;6.00;;;9.80;99.90;;;;;;5049468;28;20029;-71
2023/12/21 04:19:47;;;;;;;23.10;5.55;;;9.80;99.90;;;;;;5048552;28;20021;-71
2023/12/21 04:22:12;;;;;;;33.10;6.80;;;9.80;99.90;;;;;;5047837;28;20498;-71
2023/12/21 04:24:38;;;;;;;24.58;5.68;;;9.80;99.90;;;;;;5048558;28;20397;-72
2023/12/21 04:27:04;;;;;;;24.13;6.22;;;9.80;99.90;;;;;;5048277;28;20478;-72
2023/12/21 04:29:29;;;;;;;26.90;6.53;;;9.80;99.90;;;;;;5048799;28;20027;-71
2023/12/21 04:31:55;;;;;;;29.63;6.20;;;9.80;99.90;;;;;;5048892;28;20490;-71
2023/12/21 04:34:21;;;;;;;28.30;6.53;;;9.80;99.90;;;;;;5048574;28;20021;-71
2023/12/21 04:36:46;;;;;;;19.25;6.28;;;9.80;99.90;;;;;;5048738;28;20417;-71
2023/12/21 04:39:12;;;;;;;31.80;6.22;;;9.80;99.90;;;;;;5048534;28;20091;-71
2023/12/21 04:41:38;;;;;;;22.48;5.88;;;9.90;99.90;;;;;;5048854;28;20025;-71
2023/12/21 04:44:05;;;;;;;24.52;6.65;;;9.90;99.90;;;;;;5048112;28;20108;-71
2023/12/21 04:46:31;;;;;;;29.05;6.25;;;9.90;99.90;;;;;;5048503;28;20104;-71
2023/12/21 04:48:56;;;;;;;36.35;6.90;;;9.80;99.90;;;;;;5033762;28;20017;-72
2023/12/21 04:51:22;;;;;;;20.38;5.32;;;9.90;99.90;;;;;;5047415;28;20090;-72
2023/12/21 04:53:48;;;;;;;27.77;5.88;;;9.90;99.90;;;;;;5047965;28;20021;-71
2023/12/21 04:56:14;;;;;;;20.48;5.38;;;9.90;99.90;;;;;;5048557;28;20505;-71
2023/12/21 04:58:40;;;;;;;25.80;5.05;;;9.90;99.90;;;;;;5048071;28;20482;-71
2023/12/21 05:01:07;;;;;;;28.67;5.32;;;9.90;99.90;;;;;;5047890;28;20021;-71
2023/12/21 05:03:32;;;;;;;24.35;5.85;;;9.90;99.90;;;;;;5048001;28;20037;-69
2023/12/21 05:05:58;;;;;;;18.30;4.97;;;10.00;99.90;;;;;;5046848;28;20089;-71
2023/12/21 05:08:24;;;;;;;24.60;5.32;;;10.00;99.90;;;;;;5048119;28;20033;-71
2023/12/21 05:10:51;;;;;;;23.58;5.50;;;10.00;99.90;;;;;;5046674;28;20021;-71
2023/12/21 05:13:18;;;;;;;24.13;5.82;;;10.00;99.90;;;;;;5048033;28;20081;-71
2023/12/21 05:15:43;;;;;;;20.42;5.35;;;10.00;99.90;;;;;;5047860;28;20013;-71
2023/12/21 05:18:09;;;;;;;28.48;4.80;;;10.00;99.90;;;;;;5047898;28;20171;-71
2023/12/21 05:20:34;;;;;;;16.25;4.57;;;10.00;99.90;;;;;;5047987;28;20032;-71
2023/12/21 05:23:00;;;;;;;20.38;5.47;;;10.10;99.90;;;;;;5047639;28;20418;-71
2023/12/21 05:25:26;;;;;;;26.13;5.13;;;10.10;99.90;;;;;;5047650;28;20178;-71
2023/12/21 05:27:52;;;;;;;24.70;5.82;;;10.00;99.90;;;;;;5047834;28;20024;-71
2023/12/21 05:30:18;;;;;;;22.75;4.80;;;10.10;99.90;;;;;;5046120;28;20013;-71
2023/12/21 05:32:45;;;;;;;30.13;5.10;;;10.00;99.90;;;;;;5047749;28;20028;-71
2023/12/21 05:35:11;;;;;;;23.83;6.47;;;10.00;99.90;;;;;;5047311;28;20105;-71
2023/12/21 05:37:36;;;;;;;21.88;5.47;;;10.00;99.90;;;;;;5047544;28;20131;-70
2023/12/21 05:40:02;;;;;;;23.63;4.95;;;10.00;99.90;;;;;;5046394;28;20021;-71
2023/12/21 05:42:28;;;;;;;29.60;5.93;;;10.00;99.90;;;;;;5046364;28;20051;-71
2023/12/21 05:44:54;;;;;;;20.58;5.25;;;10.10;99.90;;;;;;5046777;28;20483;-71
2023/12/21 05:47:20;;;;;;;26.20;5.45;;;10.10;99.90;;;;;;5047628;28;20561;-71
2023/12/21 05:49:46;;;;;;;21.85;5.40;;;10.00;99.90;;;;;;5047530;28;20082;-70
2023/12/21 05:52:12;;;;;;;25.38;6.63;;;10.00;99.90;;;;;;5048368;28;20013;-71
2023/12/21 05:54:38;;;;;;;18.48;5.57;;;10.10;99.90;;;;;;5047697;28;20028;-71
2023/12/21 05:57:04;;;;;;;26.88;5.07;;;10.10;99.90;;;;;;5047665;28;20021;-72
2023/12/21 05:59:30;;;;;;;24.80;5.45;;;10.10;99.90;;;;;;5046817;28;20028;-71
2023/12/21 06:01:56;;;;;;;21.95;4.82;;;10.10;99.90;;;;;;5047110;28;20482;-71
2023/12/21 06:04:22;;;;;;;18.35;4.05;;;10.10;99.90;;;;;;5046528;28;20486;-72
2023/12/21 06:06:48;;;;;;;19.35;4.45;;;10.00;99.90;;;;;;5046999;28;20783;-71
2023/12/21 06:09:14;;;;;;;19.52;4.97;;;10.10;99.90;;;;;;5047029;28;20108;-71
2023/12/21 06:11:40;;;;;;;26.15;5.22;;;10.00;99.90;;;;;;5045377;28;20561;-71
2023/12/21 06:14:06;;;;;;;17.80;4.97;;;10.00;99.90;;;;;;5046468;28;20045;-71
2023/12/21 06:16:32;;;;;;;17.73;5.35;;;10.10;99.90;;;;;;5047099;28;20501;-71
2023/12/21 06:18:59;;;;;;;21.13;5.38;;;10.00;99.90;;;;;;5046517;28;20020;-71
2023/12/21 06:21:24;;;;;;;25.70;5.97;;;10.00;99.90;;;;;;5046844;28;20478;-70
2023/12/21 06:23:50;;;;;;;21.25;5.70;;;10.00;99.90;;;;;;5046553;28;20029;-70
2023/12/21 06:26:15;;;;;;;26.95;5.47;;;10.00;99.90;;;;;;5046988;28;20025;-71
2023/12/21 06:28:41;;;;;;;25.38;5.30;;;10.00;99.90;;;;;;5045690;28;20029;-72
2023/12/21 06:31:08;;;;;;;23.75;5.32;;;10.00;99.90;;;;;;5046838;28;20047;-71
2023/12/21 06:33:34;;;;;;;16.35;5.05;;;10.00;99.90;;;;;;5045588;28;20025;-71
2023/12/21 06:36:00;;;;;;;26.40;5.78;;;10.00;99.90;;;;;;5045035;28;20444;-71
2023/12/21 06:38:25;;;;;;;28.33;5.75;;;10.00;99.90;;;;;;5046729;28;20036;-71
2023/12/21 06:40:51;;;;;;;21.42;4.65;;;10.00;99.90;;;;;;5045892;28;20021;-72
2023/12/21 06:43:18;;;;;;;23.33;4.82;;;10.00;99.90;;;;;;5046631;28;20039;-71
2023/12/21 06:45:44;;;;;;;15.68;4.78;;;10.00;99.90;;;;;;5045479;28;20147;-72
2023/12/21 06:48:09;;;;;;;17.83;4.20;;;10.00;99.90;;;;;;5046423;28;20119;-71
2023/12/21 06:50:35;;;;;;;19.88;4.72;;;10.00;99.90;;;;;;5048169;28;20013;-71
2023/12/21 06:53:01;;;;;;;21.98;5.53;;;10.00;99.90;;;;;;5051825;28;20017;-70
2023/12/21 06:55:26;;;;;;;15.02;4.53;;;10.10;99.90;;;;;;5048855;28;20025;-72
2023/12/21 06:57:52;;;;;;;20.63;4.80;;;10.10;99.90;;;;;;5052393;28;20056;-70
2023/12/21 07:00:18;;;;;;;18.38;5.05;;;10.10;99.90;;;;;;5052369;28;20069;-70
2023/12/21 07:02:43;;;;;;;16.77;5.38;;;10.00;99.90;;;;;;5048491;28;20052;-70
2023/12/21 07:05:09;;;;;;;21.48;6.25;;;10.00;99.90;;;;;;5052640;28;20108;-70
2023/12/21 07:07:35;;;;;;;20.13;5.60;;;10.10;99.90;;;;;;5051502;28;20456;-70
2023/12/21 07:10:00;;;;;;;20.27;5.00;;;10.10;99.90;;;;;;5051169;28;20029;-70
2023/12/21 07:12:27;;;;;;;20.80;5.55;;;10.10;99.90;;;;;;5050434;28;20623;-70
2023/12/21 07:14:53;;;;;;;17.70;5.10;;;10.10;99.90;;;;;;5052015;28;20043;-70
2023/12/21 07:17:19;;;;;;;20.17;5.25;;;10.10;99.90;;;;;;5052731;28;20386;-70
2023/12/21 07:19:45;;;;;;;19.08;4.60;;;10.10;99.90;;;;;;5052007;28;20084;-70
2023/12/21 07:22:10;;;;;;;23.90;4.85;;;10.10;99.90;;;;;;5052807;28;20708;-70
2023/12/21 07:24:37;;;;;;;23.67;5.10;;;10.00;99.90;;;;;;5052528;28;20025;-70
2023/12/21 07:27:03;;;;;;;21.25;5.18;;;10.10;99.90;;;;;;5051600;28;21012;-70
2023/12/21 07:29:29;;;;;;;23.83;5.10;;;10.10;99.90;;;;;;5049996;28;20018;-70
2023/12/21 07:31:55;;;;;;;25.33;4.32;;;10.10;99.90;;;;;;5048350;28;20040;-70
2023/12/21 07:34:21;;;;;;;14.60;4.47;;;10.10;99.90;;;;;;5042981;28;20860;-70
2023/12/21 07:36:46;;;;;;;23.45;5.10;;;10.10;99.90;;;;;;5051128;28;20021;-69
2023/12/21 07:39:12;;;;;;;21.77;5.07;;;10.10;99.90;;;;;;5042144;28;20032;-70
2023/12/21 07:41:38;;;;;;;21.17;5.43;;;10.10;99.90;;;;;;5052455;28;20025;-69
2023/12/21 07:44:04;;;;;;;22.65;5.70;;;10.10;99.90;;;;;;5051102;28;20021;-70
2023/12/21 07:46:30;;;;;;;18.80;5.35;;;10.10;99.90;;;;;;5052248;28;20033;-70
2023/12/21 07:48:56;;;;;;;20.05;5.60;;;10.10;99.90;;;;;;5050756;28;20114;-71
2023/12/21 07:51:21;;;;;;;18.55;5.18;;;10.10;99.90;;;;;;5048663;28;20025;-70
2023/12/21 07:53:47;;;;;;;23.10;4.90;;;10.10;99.90;;;;;;5049136;28;20033;-70
2023/12/21 07:56:13;;;;;;;19.27;5.30;;;10.10;99.90;;;;;;5050777;28;20375;-70
2023/12/21 07:58:38;;;;;;;13.68;4.95;;;10.10;99.90;;;;;;5039598;28;20466;-70
2023/12/21 08:01:05;;;;;;;21.35;4.93;;;10.10;99.90;;;;;;5049997;28;20386;-70
2023/12/21 08:03:30;;;;;;;27.45;5.35;;;10.10;99.90;;;;;;5046043;28;20036;-69
2023/12/21 08:05:56;;;;;;;21.85;5.13;;;10.10;99.90;;;;;;5047675;28;20029;-70
2023/12/21 08:08:22;;;;;;;30.98;4.93;;;10.10;99.90;;;;;;5042474;28;20124;-70
2023/12/21 08:10:47;;;;;;;20.60;4.65;;;10.10;99.90;;;;;;5044716;28;20032;-69
2023/12/21 08:13:13;;;;;;;19.23;4.55;;;10.20;99.90;;;;;;5047253;28;20059;-69
2023/12/21 08:15:39;;;;;;;13.73;4.13;;;10.20;99.90;;;;;;5043438;28;20032;-70
2023/12/21 08:18:05;;;;;;;18.63;4.50;;;10.20;99.90;;;;;;5047461;28;20032;-70
2023/12/21 08:20:33;;;;;;;18.15;4.20;;;10.20;99.90;;;;;;5047040;28;20024;-70
2023/12/21 08:23:02;;;;;;;13.73;3.55;;;10.20;99.90;;;;;;5045031;28;20044;-70
2023/12/21 08:25:28;;;;;;;17.02;4.20;;;10.20;99.90;;;;;;5045484;28;20078;-71
2023/12/21 08:27:54;;;;;;;13.63;3.75;;;10.20;99.90;;;;;;5047531;28;20025;-70
2023/12/21 08:30:20;;;;;;;13.13;3.80;;;10.20;99.90;;;;;;5048605;28;20374;-70
2023/12/21 08:32:46;;;;;;;12.80;3.60;;;10.20;99.90;;;;;;5048781;28;20029;-70
2023/12/21 08:35:11;;;;;;;13.30;2.92;;;10.20;99.90;;;;;;5048206;28;20634;-70
2023/12/21 08:37:37;;;;;;;12.65;2.90;;;10.20;99.90;;;;;;5048837;28;20505;-70
2023/12/21 08:40:03;;;;;;;11.98;3.17;;;10.20;99.90;;;;;;5047900;28;20029;-70
2023/12/21 08:42:30;;;;;;;13.95;3.50;;;10.20;99.90;;;;;;5048957;28;20418;-70
2023/12/21 08:44:58;;;;;;;18.65;4.18;;;10.20;99.90;;;;;;5043510;28;20546;-70
2023/12/21 08:47:23;;;;;;;12.43;3.50;;;10.30;99.90;;;;;;5044375;28;20143;-70
2023/12/21 08:49:49;;;;;;;12.77;3.05;;;10.30;99.90;;;;;;5048072;28;20096;-70
2023/12/21 08:52:14;;;;;;;13.35;3.05;;;10.30;99.90;;;;;;5048410;28;20036;-69
2023/12/21 08:54:41;;;;;;;13.57;3.30;;;10.30;99.90;;;;;;5047717;28;20041;-70
2023/12/21 08:57:07;;;;;;;14.38;3.00;;;10.30;99.90;;;;;;5048286;28;20501;-70
2023/12/21 08:59:32;;;;;;;17.52;3.55;;;10.30;99.90;;;;;;5048089;28;20083;-69
2023/12/21 09:01:58;;;;;;;16.95;3.65;;;10.30;99.90;;;;;;5047997;28;20025;-70
2023/12/21 09:04:24;;;;;;;15.52;3.13;;;10.30;99.90;;;;;;5046273;28;20037;-71
2023/12/21 09:06:50;;;;;;;17.38;3.80;;;10.30;99.90;;;;;;5045813;28;20029;-70
2023/12/21 09:09:16;;;;;;;17.00;3.50;;;10.30;99.90;;;;;;5047782;28;20021;-69
2023/12/21 09:11:42;;;;;;;15.43;3.80;;;10.30;99.90;;;;;;5046422;28;20021;-69
2023/12/21 09:14:08;;;;;;;16.85;4.15;;;10.30;99.90;;;;;;5047446;28;20044;-70
2023/12/21 09:16:34;;;;;;;20.60;4.35;;;10.30;99.90;;;;;;5046962;28;20087;-70
2023/12/21 09:19:00;;;;;;;14.05;3.33;;;10.30;99.90;;;;;;5041726;28;20051;-70
2023/12/21 09:21:26;;;;;;;20.27;3.92;;;10.40;99.90;;;;;;5047580;28;20024;-70
2023/12/21 09:23:52;;;;;;;20.50;4.00;;;10.30;99.90;;;;;;5047503;28;20383;-69
2023/12/21 09:26:18;;;;;;;18.88;3.65;;;10.30;99.90;;;;;;5047667;28;20027;-69
2023/12/21 09:28:45;;;;;;;18.90;3.60;;;10.40;99.90;;;;;;5047576;28;20175;-69
2023/12/21 09:31:10;;;;;;;17.27;2.88;;;10.40;99.90;;;;;;5047329;28;20032;-70
2023/12/21 09:33:38;;;;;;;14.88;3.20;;;10.40;99.90;;;;;;5047691;28;20535;-70
2023/12/21 09:36:04;;;;;;;20.65;3.75;;;10.40;99.90;;;;;;5047151;28;20017;-70
2023/12/21 09:38:31;;;;;;;12.80;2.80;;;10.40;99.90;;;;;;5047497;28;20094;-69
2023/12/21 09:40:58;;;;;;;15.73;3.67;;;10.50;99.90;;;;;;5047251;28;20032;-69
2023/12/21 09:43:24;;;;;;;22.45;3.50;;;10.50;99.90;;;;;;5047250;28;20100;-69
2023/12/21 09:45:51;;;;;;;15.82;3.30;;;10.50;99.90;;;;;;5046358;28;20086;-69
2023/12/21 09:48:18;;;;;;;13.73;3.25;;;10.50;99.90;;;;;;5045839;28;20021;-69
2023/12/21 09:50:45;;;;;;;18.48;3.53;;;10.50;99.90;;;;;;5045688;28;20027;-70
2023/12/21 09:53:15;;;;;;;19.73;3.05;;;10.50;99.90;;;;;;5047237;28;20500;-70
2023/12/21 09:55:42;;;;;;;13.48;3.05;;;10.50;99.90;;;;;;5046332;28;20017;-69
2023/12/21 09:58:09;;;;;;;18.00;3.78;;;10.60;99.90;;;;;;5047249;28;20051;-69
2023/12/21 10:00:36;;;;;;;16.52;3.95;;;10.60;99.90;;;;;;5046614;28;20041;-69
2023/12/21 10:03:03;;;;;;;15.27;3.50;;;10.60;99.90;;;;;;5036771;28;20031;-69
2023/12/21 10:05:29;;;;;;;18.30;3.50;;;10.60;99.90;;;;;;5046498;28;20065;-69
2023/12/21 10:07:55;;;;;;;18.48;3.03;;;10.60;99.90;;;;;;5046458;28;20029;-70
2023/12/21 10:10:21;;;;;;;18.65;2.85;;;10.60;99.90;;;;;;5046500;28;20021;-69
2023/12/21 10:12:47;;;;;;;15.88;2.95;;;10.70;99.90;;;;;;5046643;28;20037;-69
2023/12/21 10:15:13;;;;;;;16.67;3.05;;;10.70;99.90;;;;;;5046281;28;20849;-69
2023/12/21 10:17:39;;;;;;;18.88;3.97;;;10.70;99.90;;;;;;5045170;28;20104;-69
2023/12/21 10:20:05;;;;;;;15.63;3.20;;;10.70;99.90;;;;;;5044993;28;20025;-69
2023/12/21 10:22:32;;;;;;;19.17;3.35;;;10.70;99.90;;;;;;5046572;28;20034;-69
2023/12/21 10:24:58;;;;;;;12.00;2.75;;;10.80;99.90;;;;;;5045154;28;20025;-69
2023/12/21 10:27:25;;;;;;;12.48;2.92;;;10.80;99.90;;;;;;5046592;28;20115;-69
2023/12/21 10:29:55;;;;;;;16.05;3.22;;;10.80;99.90;;;;;;5037253;28;20132;-69
2023/12/21 10:32:22;;;;;;;14.13;2.67;;;10.80;99.90;;;;;;5046760;28;20013;-69
2023/12/21 10:34:48;;;;;;;17.13;2.70;;;10.80;99.90;;;;;;5043432;28;20557;-69
2023/12/21 10:37:17;;;;;;;12.70;2.65;;;10.90;99.90;;;;;;5046856;28;20029;-69
2023/12/21 10:39:43;;;;;;;14.57;2.58;;;10.90;99.90;;;;;;5046242;28;20147;-70
2023/12/21 10:42:09;;;;;;;19.38;2.75;;;10.90;99.90;;;;;;5036214;28;20029;-70
2023/12/21 10:44:35;;;;;;;10.10;2.53;;;10.90;99.90;;;;;;5046037;28;20083;-70
2023/12/21 10:47:02;;;;;;;9.50;2.75;;;10.90;99.90;;;;;;5044503;28;20677;-70
2023/12/21 10:49:31;;;;;;;9.18;2.20;;;11.00;99.90;;;;;;5045116;28;20082;-70
2023/12/21 10:51:57;;;;;;;9.18;2.50;;;11.00;99.90;;;;;;5046394;28;20032;-70
2023/12/21 10:54:24;;;;;;;14.13;2.42;;;11.00;99.90;;;;;;5044682;28;20059;-70
2023/12/21 10:56:51;;;;;;;18.80;2.58;;;11.00;99.90;;;;;;5044874;28;20138;-70
2023/12/21 10:59:20;;;;;;;7.35;1.90;;;11.00;99.90;;;;;;5046558;28;20023;-70
2023/12/21 11:01:46;;;;;;;7.43;1.92;;;11.10;99.90;;;;;;5046034;28;20104;-70
2023/12/21 11:04:13;;;;;;;12.10;2.47;;;11.10;99.90;;;;;;5046116;28;20021;-71
2023/12/21 11:06:42;;;;;;;11.38;2.28;;;11.10;99.90;;;;;;5044162;28;20043;-70
2023/12/21 11:09:10;;;;;;;13.48;2.53;;;11.10;99.90;;;;;;5045079;28;20021;-70
2023/12/21 11:11:36;;;;;;;10.95;2.42;;;11.10;99.90;;;;;;5046017;28;20447;-70
2023/12/21 11:14:02;;;;;;;15.20;3.25;;;11.10;99.90;;;;;;5045940;28;20052;-71
2023/12/21 11:16:41;;;;;;;10.45;2.50;;;11.10;99.90;;;;;;5046105;28;20061;-70
2023/12/21 11:19:10;;;;;;;20.58;2.90;;;11.10;99.90;;;;;;5046296;28;20091;-71
2023/12/21 11:21:36;;;;;;;15.32;2.53;;;11.20;99.90;;;;;;5041818;28;20021;-70
2023/12/21 11:24:02;;;;;;;11.93;2.17;;;11.20;99.90;;;;;;5037265;28;20100;-70
2023/12/21 11:26:28;;;;;;;13.75;2.50;;;11.20;99.90;;;;;;5046177;28;20021;-70
2023/12/21 11:29:05;;;;;;;11.82;2.30;;;11.10;99.90;;;;;;5046273;28;20032;-70
2023/12/21 11:31:38;;;;;;;11.90;2.17;;;11.10;99.90;;;;;;5039578;28;20051;-70
2023/12/21 11:34:15;;;;;;;11.95;2.28;;;11.10;99.90;;;;;;5045252;28;20106;-70
2023/12/21 11:36:42;;;;;;;10.82;2.75;;;11.10;99.90;;;;;;5045734;28;20024;-70
2023/12/21 11:39:14;;;;;;;9.40;2.53;;;11.10;99.90;;;;;;5049813;28;20155;-71
2023/12/21 11:41:59;;;;;;;8.20;2.20;;;11.10;99.90;;;;;;5049475;28;20528;-70
2023/12/21 11:44:36;;;;;;;11.65;2.67;;;11.10;99.90;;;;;;5049627;28;20021;-70
2023/12/21 11:47:04;;;;;;;14.48;2.80;;;11.10;99.90;;;;;;5049715;28;20025;-71
2023/12/21 11:49:30;;;;;;;10.68;2.63;;;11.10;99.90;;;;;;5049887;28;20020;-70
2023/12/21 11:51:56;;;;;;;10.35;2.38;;;11.10;99.90;;;;;;5047365;28;20024;-71
2023/12/21 11:54:23;;;;;;;11.93;2.60;;;11.10;99.90;;;;;;5047782;28;20032;-70
2023/12/21 11:57:08;;;;;;;12.60;2.85;;;11.10;99.90;;;;;;5047934;28;20112;-71
2023/12/21 11:59:34;;;;;;;7.53;2.50;;;11.10;99.90;;;;;;5049461;28;20021;-71
2023/12/21 12:01:59;;;;;;;10.88;3.60;;;11.10;99.90;;;;;;5049129;28;20033;-70
2023/12/21 12:04:25;;;;;;;11.07;2.50;;;11.00;99.90;;;;;;5048254;28;20047;-70
2023/12/21 12:06:51;;;;;;;12.18;2.78;;;11.00;99.90;;;;;;5063531;28;20052;-70
2023/12/21 12:09:19;;;;;;;10.95;2.58;;;11.00;99.90;;;;;;5048687;28;20131;-71
2023/12/21 12:11:45;;;;;;;12.85;2.55;;;11.10;99.90;;;;;;5047993;28;20028;-71
2023/12/21 12:14:10;;;;;;;15.60;2.88;;;11.00;99.90;;;;;;5048776;28;20070;-71
2023/12/21 12:16:37;;;;;;;10.65;2.80;;;11.10;99.90;;;;;;5048168;28;20376;-70
2023/12/21 12:19:03;;;;;;;13.13;2.40;;;11.10;99.90;;;;;;5048021;28;20021;-71
2023/12/21 12:21:30;;;;;;;10.77;2.45;;;11.00;99.90;;;;;;5047653;28;20155;-71
2023/12/21 12:23:56;;;;;;;10.60;3.17;;;11.10;99.90;;;;;;5047808;28;20025;-71
2023/12/21 12:26:22;;;;;;;8.82;2.22;;;11.10;99.90;;;;;;5047341;28;20502;-71
2023/12/21 12:28:49;;;;;;;8.50;2.95;;;11.00;99.90;;;;;;5047509;28;20078;-71
2023/12/21 12:31:17;;;;;;;11.75;2.25;;;11.00;99.90;;;;;;5046519;28;20033;-71
2023/12/21 12:33:42;;;;;;;10.35;2.20;;;11.00;99.90;;;;;;5047603;28;20028;-71
2023/12/21 12:36:08;;;;;;;13.73;2.15;;;11.10;99.90;;;;;;5048280;28;20021;-71